createdAt,value
2023-03-04T00:00:29.305Z,26.87
2023-03-04T00:02:57.720Z,27.33
2023-03-04T00:05:28.195Z,26.93
2023-03-04T00:07:57.300Z,26.83
2023-03-04T00:10:26.258Z,27.67
2023-03-04T00:12:55.045Z,28.07
2023-03-04T00:15:25.067Z,26.17
2023-03-04T00:17:56.167Z,28.17
2023-03-04T00:20:24.407Z,25.60
2023-03-04T00:22:52.955Z,27.67
2023-03-04T00:25:21.568Z,29.73
2023-03-04T00:27:50.818Z,26.70
2023-03-04T00:30:19.487Z,26.37
2023-03-04T00:32:49.922Z,27.40
2023-03-04T00:35:18.681Z,27.77
2023-03-04T00:37:47.531Z,27.33
2023-03-04T00:40:15.937Z,26.80
2023-03-04T00:42:44.273Z,27.60
2023-03-04T00:45:13.552Z,28.83
2023-03-04T00:47:44.461Z,27.33
2023-03-04T00:50:16.795Z,26.33
2023-03-04T00:52:45.262Z,27.67
2023-03-04T00:55:14.190Z,26.30
2023-03-04T00:57:44.444Z,28.10
2023-03-04T01:00:26.762Z,28.47
2023-03-04T01:03:17.888Z,26.83
2023-03-04T01:05:47.825Z,25.93
2023-03-04T01:08:17.172Z,27.10
2023-03-04T01:10:46.687Z,27.53
2023-03-04T01:13:15.285Z,26.53
2023-03-04T01:15:44.089Z,26.13
2023-03-04T01:18:12.973Z,26.40
2023-03-04T01:20:43.000Z,27.47
2023-03-04T01:23:12.894Z,27.13
2023-03-04T01:25:44.740Z,25.93
2023-03-04T01:28:13.155Z,25.53
2023-03-04T01:30:43.304Z,26.33
2023-03-04T01:33:11.694Z,25.27
2023-03-04T01:35:40.661Z,25.87
2023-03-04T01:38:09.083Z,25.57
2023-03-04T01:40:40.090Z,27.37
2023-03-04T01:43:08.178Z,26.03
2023-03-04T01:45:39.748Z,25.70
2023-03-04T01:48:11.269Z,26.97
2023-03-04T01:50:40.152Z,26.57
2023-03-04T01:53:08.394Z,27.17
2023-03-04T01:55:38.911Z,24.10
2023-03-04T01:58:11.097Z,24.53
2023-03-04T02:00:39.707Z,25.33
2023-03-04T02:03:11.470Z,25.67
2023-03-04T02:05:42.170Z,27.77
2023-03-04T02:08:11.736Z,25.07
2023-03-04T02:10:43.686Z,25.63
2023-03-04T02:13:12.878Z,26.07
2023-03-04T02:15:41.389Z,27.97
2023-03-04T02:18:17.197Z,26.27
2023-03-04T02:20:54.109Z,25.40
2023-03-04T02:23:27.212Z,25.53
2023-03-04T02:26:15.877Z,25.30
2023-03-04T02:28:44.729Z,25.07
2023-03-04T02:31:23.537Z,25.80
2023-03-04T02:33:53.029Z,24.80
2023-03-04T02:36:21.868Z,25.53
2023-03-04T02:38:51.309Z,27.27
2023-03-04T02:41:25.737Z,25.53
2023-03-04T02:43:56.308Z,26.10
2023-03-04T02:46:25.247Z,25.63
2023-03-04T02:48:54.062Z,24.80
2023-03-04T02:51:22.256Z,27.13
2023-03-04T02:53:50.657Z,26.37
2023-03-04T02:56:20.697Z,26.80
2023-03-04T02:58:48.986Z,26.40
2023-03-04T03:01:17.244Z,25.10
2023-03-04T03:03:45.502Z,25.63
2023-03-04T03:06:13.800Z,25.47
2023-03-04T03:08:41.928Z,26.20
2023-03-04T03:11:10.238Z,24.80
2023-03-04T03:13:40.606Z,24.63
2023-03-04T03:16:09.059Z,26.17
2023-03-04T03:18:37.169Z,25.67
2023-03-04T03:21:05.694Z,27.43
2023-03-04T03:23:34.107Z,24.63
2023-03-04T03:26:02.441Z,26.67
2023-03-04T03:28:30.831Z,22.90
2023-03-04T03:31:00.891Z,24.73
2023-03-04T03:33:30.412Z,27.60
2023-03-04T03:35:58.907Z,25.43
2023-03-04T03:38:27.659Z,25.93
2023-03-04T03:40:56.270Z,26.50
2023-03-04T03:43:24.816Z,23.93
2023-03-04T03:45:53.684Z,26.63
2023-03-04T03:48:23.663Z,25.60
2023-03-04T03:50:52.262Z,27.53
2023-03-04T03:53:20.712Z,26.20
2023-03-04T03:55:49.540Z,27.43
2023-03-04T03:58:17.959Z,27.17
2023-03-04T04:00:46.623Z,25.73
2023-03-04T04:03:17.898Z,25.33
2023-03-04T04:05:48.070Z,27.10
2023-03-04T04:08:16.690Z,27.27
2023-03-04T04:10:45.671Z,26.83
2023-03-04T04:13:13.915Z,25.43
2023-03-04T04:15:42.351Z,27.37
2023-03-04T04:18:11.234Z,25.73
2023-03-04T04:20:39.625Z,25.40
2023-03-04T04:23:09.240Z,26.67
2023-03-04T04:25:37.698Z,25.97
2023-03-04T04:28:06.576Z,25.37
2023-03-04T04:30:34.877Z,25.67
2023-03-04T04:33:05.036Z,24.97
2023-03-04T04:35:34.394Z,24.57
2023-03-04T04:38:02.610Z,22.80
2023-03-04T04:40:35.328Z,23.87
2023-03-04T04:43:03.833Z,23.70
2023-03-04T04:45:32.083Z,26.07
2023-03-04T04:48:00.306Z,25.30
2023-03-04T04:50:30.725Z,24.67
2023-03-04T04:53:00.113Z,23.10
2023-03-04T04:55:28.362Z,23.20
2023-03-04T04:57:58.296Z,24.20
2023-03-04T05:00:26.876Z,25.50
2023-03-04T05:02:55.199Z,23.27
2023-03-04T05:05:23.650Z,23.70
2023-03-04T05:07:51.888Z,24.80
2023-03-04T05:10:20.200Z,22.67
2023-03-04T05:12:48.584Z,22.60
2023-03-04T05:15:18.779Z,21.90
2023-03-04T05:17:47.368Z,22.97
2023-03-04T05:20:15.634Z,23.57
2023-03-04T05:22:44.147Z,22.70
2023-03-04T05:25:12.380Z,24.10
2023-03-04T05:27:40.568Z,22.53
2023-03-04T05:30:10.472Z,21.33
2023-03-04T05:32:40.185Z,21.73
2023-03-04T05:35:09.079Z,22.50
2023-03-04T05:37:37.196Z,24.03
2023-03-04T05:40:06.158Z,20.20
2023-03-04T05:42:34.539Z,21.97
2023-03-04T05:45:02.552Z,22.60
2023-03-04T05:47:30.749Z,21.73
2023-03-04T05:50:00.379Z,23.17
2023-03-04T05:52:28.848Z,22.33
2023-03-04T05:54:57.173Z,23.30
2023-03-04T05:57:25.411Z,21.90
2023-03-04T05:59:53.770Z,22.07
2023-03-04T06:02:24.792Z,24.10
2023-03-04T06:04:53.038Z,20.87
2023-03-04T06:07:22.578Z,21.20
2023-03-04T06:09:50.756Z,23.33
2023-03-04T06:12:18.927Z,22.00
2023-03-04T06:14:49.546Z,23.23
2023-03-04T06:17:18.336Z,23.33
2023-03-04T06:19:46.764Z,22.90
2023-03-04T06:22:15.097Z,22.40
2023-03-04T06:24:45.067Z,22.67
2023-03-04T06:27:13.900Z,23.27
2023-03-04T06:29:42.430Z,23.30
2023-03-04T06:32:10.944Z,21.53
2023-03-04T06:34:39.549Z,21.80
2023-03-04T06:37:07.648Z,22.20
2023-03-04T06:39:36.341Z,21.77
2023-03-04T06:42:05.967Z,21.87
2023-03-04T06:44:34.184Z,22.33
2023-03-04T06:47:02.357Z,23.93
2023-03-04T06:49:30.456Z,25.77
2023-03-04T06:51:58.656Z,22.83
2023-03-04T06:54:26.874Z,23.83
2023-03-04T06:56:54.995Z,22.17
2023-03-04T06:59:24.876Z,21.87
2023-03-04T07:01:53.128Z,23.93
2023-03-04T07:04:22.857Z,22.83
2023-03-04T07:06:51.603Z,22.57
2023-03-04T07:09:20.135Z,22.10
2023-03-04T07:11:49.046Z,21.37
2023-03-04T07:14:17.544Z,21.77
2023-03-04T07:16:47.312Z,20.83
2023-03-04T07:19:15.615Z,21.43
2023-03-04T07:21:43.720Z,23.13
2023-03-04T07:24:11.986Z,23.70
2023-03-04T07:26:40.652Z,22.43
2023-03-04T07:29:10.325Z,21.93
2023-03-04T07:31:39.634Z,19.57
2023-03-04T07:34:13.711Z,21.70
2023-03-04T07:36:42.710Z,22.10
2023-03-04T07:39:14.407Z,21.43
2023-03-04T07:41:44.528Z,22.07
2023-03-04T07:44:14.701Z,18.77
2023-03-04T07:46:43.224Z,21.27
2023-03-04T07:49:16.231Z,23.33
2023-03-04T07:51:44.478Z,21.03
2023-03-04T07:54:13.109Z,21.57
2023-03-04T07:56:43.299Z,19.57
2023-03-04T08:05:28.734Z,21.47
2023-03-04T08:08:17.436Z,19.50
2023-03-04T08:10:51.158Z,19.00
2023-03-04T08:13:23.870Z,20.50
2023-03-04T08:16:14.450Z,18.27
2023-03-04T08:18:45.235Z,19.73
2023-03-04T08:24:59.205Z,18.70
2023-03-04T08:27:27.444Z,20.53
2023-03-04T08:29:55.410Z,20.87
2023-03-04T08:32:23.922Z,20.87
2023-03-04T08:34:57.015Z,20.73
2023-03-04T08:37:30.384Z,19.13
2023-03-04T08:40:00.951Z,19.00
2023-03-04T08:42:30.675Z,21.00
2023-03-04T08:45:00.629Z,19.50
2023-03-04T08:47:32.768Z,20.13
2023-03-04T08:50:07.464Z,20.00
2023-03-04T08:52:36.479Z,19.93
2023-03-04T08:55:10.473Z,20.50
2023-03-04T08:57:39.464Z,19.37
2023-03-04T09:00:11.673Z,19.00
2023-03-04T09:02:42.146Z,19.83
2023-03-04T09:05:12.434Z,18.20
2023-03-04T09:07:44.748Z,19.00
2023-03-04T09:10:15.892Z,19.30
2023-03-04T09:12:45.393Z,20.23
2023-03-04T09:15:16.318Z,17.87
2023-03-04T09:17:47.110Z,18.40
2023-03-04T09:20:16.176Z,18.93
2023-03-04T09:22:47.571Z,19.37
2023-03-04T09:28:04.611Z,17.83
2023-03-04T09:30:34.885Z,19.30
2023-03-04T09:33:03.597Z,18.90
2023-03-04T09:35:32.629Z,19.13
2023-03-04T09:38:01.468Z,17.10
2023-03-04T09:40:37.005Z,15.93
2023-03-04T09:43:20.621Z,17.87
2023-03-04T09:45:53.189Z,16.30
2023-03-04T09:48:26.362Z,16.90
2023-03-04T09:51:08.148Z,15.20
2023-03-04T09:53:47.110Z,15.77
2023-03-04T09:56:18.581Z,15.27
2023-03-04T09:58:57.858Z,12.97
2023-03-04T10:01:32.494Z,14.17
2023-03-04T10:04:06.555Z,15.97
2023-03-04T10:06:38.414Z,16.20
2023-03-04T10:09:15.192Z,15.97
2023-03-04T10:14:53.023Z,17.40
2023-03-04T10:17:24.915Z,16.77
2023-03-04T10:19:58.258Z,16.90
2023-03-04T10:25:27.830Z,17.60
2023-03-04T10:28:00.518Z,16.87
2023-03-04T10:30:44.857Z,17.37
2023-03-04T10:48:46.097Z,14.73
2023-03-04T10:51:33.428Z,14.40
2023-03-04T10:57:11.656Z,15.37
2023-03-04T11:00:20.004Z,14.63
2023-03-04T11:02:55.926Z,14.33
2023-03-04T11:05:26.972Z,16.90
2023-03-04T11:07:57.726Z,15.47
2023-03-04T11:10:52.454Z,15.90
2023-03-04T11:13:23.244Z,16.07
2023-03-04T11:15:56.202Z,16.40
2023-03-04T11:18:33.901Z,16.23
2023-03-04T11:21:04.155Z,16.60
2023-03-04T11:23:42.405Z,17.53
2023-03-04T11:26:17.547Z,16.47
2023-03-04T11:28:50.839Z,15.10
2023-03-04T11:31:24.270Z,16.80
2023-03-04T11:33:58.347Z,17.33
2023-03-04T11:36:37.793Z,16.50
2023-03-04T11:39:15.282Z,15.80
2023-03-04T11:41:55.646Z,15.23
2023-03-04T11:44:25.463Z,14.93
2023-03-04T11:47:13.015Z,15.83
2023-03-04T11:50:09.170Z,15.37
2023-03-04T11:52:58.325Z,17.40
2023-03-04T11:55:35.971Z,13.70
2023-03-04T11:58:12.988Z,13.77
2023-03-04T12:00:44.774Z,15.87
2023-03-04T12:03:29.762Z,13.93
2023-03-04T12:06:06.324Z,16.00
2023-03-04T12:09:04.681Z,16.30
2023-03-04T12:11:40.895Z,16.87
2023-03-04T12:14:22.164Z,13.93
2023-03-04T12:17:14.265Z,14.47
2023-03-04T12:20:27.513Z,16.37
2023-03-04T12:23:06.532Z,17.60
2023-03-04T12:25:46.017Z,15.50
2023-03-04T12:28:41.303Z,15.10
2023-03-04T12:31:20.058Z,16.13
2023-03-04T12:33:57.253Z,14.93
2023-03-04T12:36:34.899Z,15.00
2023-03-04T12:39:17.308Z,14.37
2023-03-04T12:42:01.370Z,13.63
2023-03-04T12:44:35.404Z,12.90
2023-03-04T12:47:12.915Z,12.93
2023-03-04T12:49:47.719Z,12.47
2023-03-04T12:52:18.421Z,12.40
2023-03-04T12:54:51.883Z,12.03
2023-03-04T12:57:23.611Z,12.77
2023-03-04T13:00:03.060Z,12.47
2023-03-04T13:02:35.936Z,12.53
2023-03-04T13:05:22.190Z,11.63
2023-03-04T13:07:55.015Z,10.57
2023-03-04T13:10:26.021Z,11.83
2023-03-04T13:12:59.469Z,12.10
2023-03-04T13:15:34.767Z,11.73
2023-03-04T13:18:07.905Z,11.93
2023-03-04T13:20:43.396Z,13.33
2023-03-04T13:23:32.228Z,12.37
2023-03-04T13:26:19.375Z,12.83
2023-03-04T13:29:06.396Z,12.63
2023-03-04T13:34:46.157Z,12.57
2023-03-04T13:37:56.894Z,11.47
2023-03-04T13:40:29.319Z,12.90
2023-03-04T13:43:18.342Z,12.87
2023-03-04T13:45:49.685Z,12.00
2023-03-04T13:48:31.133Z,12.13
2023-03-04T13:51:00.264Z,14.07
2023-03-04T13:53:48.496Z,12.93
2023-03-04T13:56:35.293Z,13.40
2023-03-04T13:59:23.254Z,12.23
2023-03-04T14:02:19.843Z,12.50
2023-03-04T14:04:58.577Z,12.87
2023-03-04T14:07:31.698Z,12.20
2023-03-04T14:10:18.661Z,12.33
2023-03-04T14:15:47.327Z,12.30
2023-03-04T14:18:17.482Z,12.27
2023-03-04T14:20:53.029Z,13.20
2023-03-04T14:23:28.013Z,11.97
2023-03-04T14:26:12.188Z,11.20
2023-03-04T14:28:49.694Z,11.50
2023-03-04T14:35:00.693Z,12.40
2023-03-04T14:37:39.453Z,11.73
2023-03-04T14:40:09.435Z,10.60
2023-03-04T14:42:47.111Z,11.40
2023-03-04T14:45:18.486Z,12.80
2023-03-04T14:47:48.738Z,11.60
2023-03-04T14:50:21.582Z,10.43
2023-03-04T14:52:52.333Z,10.77
2023-03-04T14:55:25.581Z,11.00
2023-03-04T14:57:58.705Z,9.63
2023-03-04T15:00:33.112Z,11.00
2023-03-04T15:03:04.578Z,9.63
2023-03-04T15:05:36.998Z,9.43
2023-03-04T15:08:07.690Z,10.00
2023-03-04T15:10:38.944Z,10.73
2023-03-04T15:13:09.785Z,10.57
2023-03-04T15:15:41.682Z,9.40
2023-03-04T15:18:27.004Z,10.20
2023-03-04T15:24:14.604Z,9.07
2023-03-04T15:26:46.192Z,9.63
2023-03-04T15:29:17.262Z,9.33
2023-03-04T15:31:48.482Z,9.67
2023-03-04T15:34:21.347Z,9.90
2023-03-04T15:36:52.436Z,9.13
2023-03-04T15:39:23.482Z,9.80
2023-03-04T15:41:52.217Z,9.90
2023-03-04T15:44:20.983Z,9.83
2023-03-04T15:46:49.885Z,9.27
2023-03-04T15:49:18.673Z,10.13
2023-03-04T15:51:51.408Z,9.70
2023-03-04T15:54:23.635Z,11.03
2023-03-04T15:56:51.959Z,9.43
2023-03-04T15:59:20.743Z,9.43
2023-03-04T16:01:49.129Z,9.40
2023-03-04T16:04:18.884Z,8.47
2023-03-04T16:06:50.509Z,9.77
2023-03-04T16:09:42.442Z,10.17
2023-03-04T16:12:14.071Z,10.70
2023-03-04T16:14:44.524Z,9.97
2023-03-04T16:17:13.438Z,9.30
2023-03-04T16:19:41.944Z,10.83
2023-03-04T16:22:11.684Z,9.93
2023-03-04T16:24:40.296Z,9.57
2023-03-04T16:27:14.348Z,10.40
2023-03-04T16:29:43.378Z,8.80
2023-03-04T16:32:12.871Z,9.47
2023-03-04T16:34:42.012Z,9.93
2023-03-04T16:37:19.386Z,9.77
2023-03-04T16:39:49.792Z,10.20
2023-03-04T16:42:41.823Z,10.23
2023-03-04T16:45:18.365Z,9.60
2023-03-04T16:47:52.473Z,9.97
2023-03-04T16:50:28.497Z,10.17
2023-03-04T16:52:58.897Z,9.57
2023-03-04T16:55:30.652Z,10.27
2023-03-04T16:58:05.493Z,10.27
2023-03-04T17:00:36.138Z,9.83
2023-03-04T17:03:17.309Z,9.00
2023-03-04T17:05:59.949Z,10.80
2023-03-04T17:08:29.873Z,9.83
2023-03-04T17:10:58.361Z,10.00
2023-03-04T17:13:27.817Z,11.00
2023-03-04T17:16:00.848Z,10.73
2023-03-04T17:18:28.859Z,10.97
2023-03-04T17:21:04.465Z,11.47
2023-03-04T17:23:32.640Z,10.60
2023-03-04T17:26:00.850Z,9.83
2023-03-04T17:28:30.967Z,11.70
2023-03-04T17:30:59.556Z,11.73
2023-03-04T17:33:28.268Z,9.83
2023-03-04T17:35:57.852Z,11.77
2023-03-04T17:38:26.489Z,11.20
2023-03-04T17:40:57.549Z,10.90
2023-03-04T17:43:26.364Z,10.47
2023-03-04T17:46:04.477Z,12.67
2023-03-04T17:48:32.854Z,11.67
2023-03-04T17:51:04.576Z,12.20
2023-03-04T17:53:33.309Z,10.90
2023-03-04T17:56:03.665Z,10.87
2023-03-04T17:58:35.616Z,11.63
2023-03-04T18:01:09.425Z,10.83
2023-03-04T18:03:37.599Z,11.37
2023-03-04T18:06:06.217Z,10.17
2023-03-04T18:08:34.512Z,11.40
2023-03-04T18:11:02.648Z,10.57
2023-03-04T18:13:31.242Z,10.27
2023-03-04T18:16:02.758Z,10.40
2023-03-04T18:18:32.480Z,10.80
2023-03-04T18:21:01.369Z,11.20
2023-03-04T18:23:30.105Z,8.60
2023-03-04T18:25:58.761Z,10.40
2023-03-04T18:28:27.278Z,10.47
2023-03-04T18:30:57.053Z,10.63
2023-03-04T18:33:26.095Z,9.90
2023-03-04T18:36:00.559Z,11.07
2023-03-04T18:38:29.872Z,10.53
2023-03-04T18:49:42.524Z,11.20
2023-03-04T18:52:13.300Z,10.27
2023-03-04T18:54:42.999Z,11.17
2023-03-04T18:57:14.762Z,10.63
2023-03-04T18:59:48.188Z,10.23
2023-03-04T19:02:21.670Z,10.30
2023-03-04T19:04:51.712Z,11.40
2023-03-04T19:07:21.688Z,10.13
2023-03-04T19:09:50.131Z,11.77
2023-03-04T19:12:19.032Z,11.03
2023-03-04T19:14:49.598Z,11.83
2023-03-04T19:17:18.828Z,10.77
2023-03-04T19:19:47.452Z,9.73
2023-03-04T19:22:17.717Z,10.73
2023-03-04T19:24:48.501Z,11.00
2023-03-04T19:27:23.247Z,11.10
2023-03-04T19:30:13.995Z,10.50
2023-03-04T19:32:49.396Z,11.10
2023-03-04T19:35:19.907Z,11.97
2023-03-04T19:37:59.710Z,11.43
2023-03-04T19:48:06.114Z,10.10
2023-03-04T19:50:56.774Z,11.27
2023-03-04T19:59:54.188Z,11.47
2023-03-04T20:06:12.259Z,11.33
2023-03-04T20:08:59.386Z,12.17
2023-03-04T20:14:14.698Z,11.87
2023-03-04T20:16:46.925Z,10.10
2023-03-04T20:19:17.525Z,11.33
2023-03-04T20:21:48.220Z,12.30
2023-03-04T20:24:26.985Z,13.67
2023-03-04T20:26:58.573Z,10.40
2023-03-04T20:29:28.978Z,12.87
2023-03-04T20:31:59.811Z,12.03
2023-03-04T20:34:30.419Z,13.20
2023-03-04T20:37:00.432Z,13.67
2023-03-04T20:39:34.006Z,12.97
2023-03-04T20:42:04.076Z,11.60
2023-03-04T20:44:52.308Z,13.03
2023-03-04T20:47:21.848Z,12.40
2023-03-04T20:49:56.864Z,12.30
2023-03-04T20:52:26.409Z,12.73
2023-03-04T20:54:59.181Z,11.07
2023-03-04T20:57:29.500Z,10.87
2023-03-04T21:00:01.187Z,11.70
2023-03-04T21:02:44.012Z,12.23
2023-03-04T21:05:14.255Z,13.13
2023-03-04T21:07:48.997Z,11.43
2023-03-04T21:10:19.927Z,9.80
2023-03-04T21:12:49.014Z,11.60
2023-03-04T21:15:17.401Z,11.07
2023-03-04T21:17:47.099Z,11.57
2023-03-04T21:20:16.948Z,11.03
2023-03-04T21:22:46.623Z,10.97
2023-03-04T21:25:14.714Z,12.30
2023-03-04T21:27:44.674Z,11.30
2023-03-04T21:30:13.819Z,11.00
2023-03-04T21:32:42.570Z,12.00
2023-03-04T21:35:15.345Z,12.03
2023-03-04T21:37:43.726Z,11.00
2023-03-04T21:40:13.603Z,11.03
2023-03-04T21:42:43.982Z,11.13
2023-03-04T21:45:13.435Z,10.87
2023-03-04T21:47:41.776Z,11.33
2023-03-04T21:50:10.794Z,11.77
2023-03-04T21:52:39.064Z,11.13
2023-03-04T21:55:08.756Z,10.70
2023-03-04T21:57:39.264Z,15.73
2023-03-04T22:00:10.806Z,11.63
2023-03-04T22:02:38.945Z,11.30
2023-03-04T22:05:07.764Z,12.50
2023-03-04T22:07:36.201Z,11.30
2023-03-04T22:10:06.708Z,11.90
2023-03-04T22:12:36.944Z,11.63
2023-03-04T22:15:05.544Z,12.03
2023-03-04T22:17:37.648Z,12.10
2023-03-04T22:20:08.832Z,12.37
2023-03-04T22:22:37.562Z,12.70
2023-03-04T22:25:10.318Z,11.33
2023-03-04T22:27:41.168Z,10.43
2023-03-04T22:30:18.534Z,11.93
2023-03-04T22:32:54.353Z,12.37
2023-03-04T22:35:32.773Z,13.37
2023-03-04T22:38:03.966Z,11.90
2023-03-04T22:40:37.111Z,12.93
2023-03-04T22:43:17.134Z,12.77
2023-03-04T22:45:45.972Z,11.57
2023-03-04T22:48:15.729Z,12.67
2023-03-04T22:50:44.184Z,13.53
2023-03-04T22:53:12.684Z,15.17
2023-03-04T22:55:43.544Z,13.23
2023-03-04T22:58:11.979Z,14.13
2023-03-04T23:00:41.066Z,13.60
2023-03-04T23:03:10.750Z,12.50
2023-03-04T23:05:40.654Z,12.20
2023-03-04T23:08:13.047Z,12.77
2023-03-04T23:10:44.462Z,13.30
2023-03-04T23:13:18.035Z,12.83
2023-03-04T23:15:49.015Z,14.47
2023-03-04T23:18:18.269Z,12.47
2023-03-04T23:20:49.548Z,13.00
2023-03-04T23:23:21.824Z,14.03
2023-03-04T23:25:52.177Z,13.77
2023-03-04T23:28:23.527Z,13.40
2023-03-04T23:30:51.886Z,14.33
2023-03-04T23:33:20.102Z,14.33
2023-03-04T23:35:50.071Z,14.13
2023-03-04T23:38:24.538Z,12.67
2023-03-04T23:40:53.167Z,13.70
2023-03-04T23:43:27.400Z,13.97
2023-03-04T23:45:56.559Z,14.10
2023-03-04T23:48:25.444Z,13.53
2023-03-04T23:50:56.516Z,13.87
2023-03-04T23:53:25.119Z,14.40
2023-03-04T23:55:53.404Z,13.20
2023-03-04T23:58:21.662Z,12.30
